Flight Track Log - Related Links

Times and Time Zones

All times are in EDT time to prevent confusion due to time zone crossing. See the LBQ782 flight status page for this flight to view local times or setup timezone preferences in your user account.

Time Position Orientation Groundspeed Altitude Reporting Facility
EDT Latitude Longitude Course Direction KTS MPH feet Rate Location/Type
Wed 12:07:00 AM 33.9386 -81.4540 273° West  Level FlightAware Approximate
Wed 12:08:00 AM 33.9407 -81.5097 273° West  Level FlightAware Approximate
Wed 12:09:00 AM 33.9427 -81.5655 273° West  Level FlightAware Approximate
Wed 12:10:00 AM 33.9448 -81.6212 273° West  Level FlightAware Approximate
Wed 12:11:00 AM 33.9468 -81.6769 273° West  Level FlightAware Approximate
Wed 12:12:00 AM 33.9488 -81.7327 272° West  Level FlightAware Approximate
Wed 12:13:00 AM 33.9500 -81.7884 270° West  Level FlightAware Approximate
Wed 12:14:00 AM 33.9500 -81.8442 270° West  Level FlightAware Approximate
Wed 12:15:00 AM 33.9500 -81.9000 270° West  Level FlightAware Approximate
Wed 12:16:00 AM 33.9460 -81.9532 214° Southwest  Level FlightAware Approximate
Wed 12:17:00 AM 33.9075 -81.9841 214° Southwest  Level FlightAware Approximate
Wed 12:18:00 AM 33.8690 -82.0150 214° Southwest  Level FlightAware Approximate
Wed 12:19:00 AM 33.8304 -82.0458 214° Southwest  Level FlightAware Approximate
Wed 12:20:00 AM 33.7919 -82.0767 214° Southwest  Level FlightAware Approximate
Wed 12:21:00 AM 33.7533 -82.1075 214° Southwest  Level FlightAware Approximate
Wed 12:22:00 AM 33.7148 -82.1382 214° Southwest  Level FlightAware Approximate
Wed 12:23:00 AM 33.7067 -82.1834 284° West  Level FlightAware Approximate
Wed 12:24:00 AM 33.7176 -82.2374 284° West  Level FlightAware Approximate
Wed 12:25:00 AM 33.7284 -82.2915 284° West  Level FlightAware Approximate
Wed 12:26:00 AM 33.7393 -82.3456 284° West  Level FlightAware Approximate
Wed 12:27:00 AM 33.7500 -82.3997 284° West  Level FlightAware Approximate
Wed 12:28:00 AM 33.7608 -82.4539 283° West  Level FlightAware Approximate
Wed 12:29:00 AM 33.7728 -82.5077 287° West  Level FlightAware Approximate
Wed 12:30:00 AM 33.7861 -82.5610 287° West  Level FlightAware Approximate
Wed 12:31:00 AM 33.7994 -82.6143 287° West  Level FlightAware Approximate
Wed 12:32:00 AM 33.8066 -82.6693 279° West  Level FlightAware Approximate
Wed 12:33:00 AM 33.8135 -82.7244 279° West  Level FlightAware Approximate
Wed 12:34:00 AM 33.8231 -82.7788 285° West  Level FlightAware Approximate
Wed 12:35:00 AM 33.8350 -82.8326 285° West  Level FlightAware Approximate
Wed 12:36:00 AM 33.8470 -82.8864 285° West  Level FlightAware Approximate
Wed 12:37:00 AM 33.8600 -82.9399 287° West  Level FlightAware Approximate
Wed 12:38:00 AM 33.8742 -82.9929 289° West  Level FlightAware Approximate
Wed 12:39:00 AM 33.8892 -83.0456 289° West  Level FlightAware Approximate
Wed 12:40:00 AM 33.9022 -83.0990 280° West  Level FlightAware Approximate
Wed 12:41:00 AM 33.9101 -83.1539 280° West  Level FlightAware Approximate
Wed 12:42:00 AM 33.9180 -83.2089 280° West  Level FlightAware Approximate
Wed 12:43:00 AM 33.9258 -83.2638 280° West  Level FlightAware Approximate
Wed 12:44:00 AM 33.9340 -83.3187 292° West  Level FlightAware Approximate
Wed 12:45:00 AM 33.9513 -83.3704 292° West  Level FlightAware Approximate
Wed 12:46:00 AM 33.9686 -83.4222 292° West  Level FlightAware Approximate
Wed 12:47:00 AM 33.9859 -83.4739 292° West  Level FlightAware Approximate
Wed 12:48:00 AM 34.0032 -83.5257 292° West  Level FlightAware Approximate
Wed 12:49:00 AM 34.0204 -83.5775 292° West  Level FlightAware Approximate
Wed 12:50:00 AM 34.0376 -83.6294 292° West  Level FlightAware Approximate
Wed 12:51:00 AM 34.0567 -83.6801 301° West  Level FlightAware Approximate
Wed 12:52:00 AM 34.0759 -83.7306 290° West  Level FlightAware Approximate
Wed 12:53:00 AM 34.0916 -83.7832 290° West  Level FlightAware Approximate
Wed 12:54:00 AM 34.1074 -83.8357 290° West  Level FlightAware Approximate
Wed 12:55:00 AM 34.1167 -83.8897 270° West  Level FlightAware Approximate
Wed 12:56:00 AM 34.0876 -83.9291 220° Southwest  Level FlightAware Approximate
Wed 12:57:00 AM 34.0532 -83.9662 225° Southwest  Level FlightAware Approximate
Wed 12:58:00 AM 34.0203 -84.0056 225° Southwest  Level FlightAware Approximate
Wed 12:59:00 AM 33.9875 -84.0450 225° Southwest  Level FlightAware Approximate
Wed 01:00:00 AM 33.9739 -84.0027 104° East  Level FlightAware Approximate
Wed 01:01:00 AM 33.9781 -83.9624 90° East  Level Estimated
Wed 01:02:00 AM 33.9781 -83.9624 90° East  Level Estimated
Wed 01:03:00 AM 33.9781 -83.9624 90° East  Level Estimated
Wed 01:04:00 AM 33.9781 -83.9624 90° East  Level Estimated
Wed 01:05:00 AM 33.9781 -83.9624 90° East  Level Estimated
Wed 01:06:00 AM 33.9781 -83.9624 90° East  Level Estimated
Wed 01:07:00 AM 33.9781 -83.9624 90° East  Level Estimated
Wed 01:08:00 AM 33.9781 -83.9624 90° East  Level Estimated
Wed 01:09:00 AM 33.9781 -83.9624 90° East  Level Estimated
Wed 01:10:00 AM 33.9781 -83.9624 90° East  Level Estimated
Wed 01:11:00 AM 33.9781 -83.9624 90° East  Level Estimated
Wed 01:12:00 AM 33.9781 -83.9624 90° East  Level Estimated
Wed 01:13:00 AM 33.9781 -83.9624 90° East  Level Estimated
Wed 01:14:00 AM 33.9781 -83.9624 90° East  Level Estimated
Wed 01:15:00 AM 33.9781 -83.9624 90° East  Level Estimated
Wed 01:16:00 AM 33.9781 -83.9624 90° East  Level Estimated

Login

Don't have an account? Register now (free) for customized features, flight alerts, and more!